sensor_id;sensor_type;location;lat;lon;timestamp;P1;durP1;ratioP1;P2;durP2;ratioP2
23868;SDS011;12115;47.128;15.422;2022-09-24T00:02:09;3.33;;;1.70;;
23868;SDS011;12115;47.128;15.422;2022-09-24T00:04:37;2.30;;;1.52;;
23868;SDS011;12115;47.128;15.422;2022-09-24T00:07:04;2.30;;;1.67;;
23868;SDS011;12115;47.128;15.422;2022-09-24T00:09:31;2.33;;;1.95;;
23868;SDS011;12115;47.128;15.422;2022-09-24T00:11:58;1.83;;;1.40;;
23868;SDS011;12115;47.128;15.422;2022-09-24T00:14:26;1.92;;;1.75;;
23868;SDS011;12115;47.128;15.422;2022-09-24T00:16:53;2.70;;;2.05;;
23868;SDS011;12115;47.128;15.422;2022-09-24T00:19:20;3.70;;;1.92;;
23868;SDS011;12115;47.128;15.422;2022-09-24T00:21:48;2.00;;;1.80;;
23868;SDS011;12115;47.128;15.422;2022-09-24T00:24:15;2.13;;;1.60;;
23868;SDS011;12115;47.128;15.422;2022-09-24T00:27:02;2.08;;;1.73;;
23868;SDS011;12115;47.128;15.422;2022-09-24T00:29:30;2.15;;;1.95;;
23868;SDS011;12115;47.128;15.422;2022-09-24T00:32:01;2.22;;;1.83;;
23868;SDS011;12115;47.128;15.422;2022-09-24T00:34:29;1.88;;;1.60;;
23868;SDS011;12115;47.128;15.422;2022-09-24T00:36:56;2.55;;;1.70;;
23868;SDS011;12115;47.128;15.422;2022-09-24T00:39:24;2.53;;;1.77;;
23868;SDS011;12115;47.128;15.422;2022-09-24T00:41:51;1.48;;;1.38;;
23868;SDS011;12115;47.128;15.422;2022-09-24T00:47:12;2.03;;;1.83;;
23868;SDS011;12115;47.128;15.422;2022-09-24T00:49:42;3.22;;;1.67;;
23868;SDS011;12115;47.128;15.422;2022-09-24T00:52:13;2.47;;;1.80;;
23868;SDS011;12115;47.128;15.422;2022-09-24T00:54:41;2.03;;;1.70;;
23868;SDS011;12115;47.128;15.422;2022-09-24T00:57:11;3.35;;;1.70;;
23868;SDS011;12115;47.128;15.422;2022-09-24T00:59:38;2.22;;;1.90;;
23868;SDS011;12115;47.128;15.422;2022-09-24T01:02:07;3.03;;;1.60;;
23868;SDS011;12115;47.128;15.422;2022-09-24T01:04:34;2.90;;;1.73;;
23868;SDS011;12115;47.128;15.422;2022-09-24T01:07:02;5.68;;;1.88;;
23868;SDS011;12115;47.128;15.422;2022-09-24T01:09:29;2.47;;;1.58;;
23868;SDS011;12115;47.128;15.422;2022-09-24T01:12:00;2.30;;;1.80;;
23868;SDS011;12115;47.128;15.422;2022-09-24T01:25:45;3.90;;;1.85;;
23868;SDS011;12115;47.128;15.422;2022-09-24T01:31:04;2.67;;;1.55;;
23868;SDS011;12115;47.128;15.422;2022-09-24T01:33:41;4.07;;;1.70;;
23868;SDS011;12115;47.128;15.422;2022-09-24T01:36:10;1.92;;;1.70;;
23868;SDS011;12115;47.128;15.422;2022-09-24T01:38:40;2.75;;;2.00;;
23868;SDS011;12115;47.128;15.422;2022-09-24T01:41:11;3.72;;;1.75;;
23868;SDS011;12115;47.128;15.422;2022-09-24T01:43:41;3.58;;;1.58;;
23868;SDS011;12115;47.128;15.422;2022-09-24T01:46:10;1.70;;;1.58;;
23868;SDS011;12115;47.128;15.422;2022-09-24T01:48:39;3.70;;;2.20;;
23868;SDS011;12115;47.128;15.422;2022-09-24T01:51:14;1.85;;;1.65;;
23868;SDS011;12115;47.128;15.422;2022-09-24T01:53:47;4.22;;;1.95;;
23868;SDS011;12115;47.128;15.422;2022-09-24T01:56:24;3.72;;;1.90;;
23868;SDS011;12115;47.128;15.422;2022-09-24T02:02:06;2.65;;;1.90;;
23868;SDS011;12115;47.128;15.422;2022-09-24T02:04:42;1.65;;;1.55;;
23868;SDS011;12115;47.128;15.422;2022-09-24T02:07:14;2.25;;;1.85;;
23868;SDS011;12115;47.128;15.422;2022-09-24T02:09:49;3.75;;;1.73;;
23868;SDS011;12115;47.128;15.422;2022-09-24T02:12:25;2.75;;;1.92;;
23868;SDS011;12115;47.128;15.422;2022-09-24T02:17:37;4.18;;;1.65;;
23868;SDS011;12115;47.128;15.422;2022-09-24T02:20:12;2.30;;;1.67;;
23868;SDS011;12115;47.128;15.422;2022-09-24T02:22:41;2.88;;;1.60;;
23868;SDS011;12115;47.128;15.422;2022-09-24T02:25:12;1.42;;;1.33;;
23868;SDS011;12115;47.128;15.422;2022-09-24T02:27:41;2.90;;;2.13;;
23868;SDS011;12115;47.128;15.422;2022-09-24T02:30:09;2.20;;;2.00;;
23868;SDS011;12115;47.128;15.422;2022-09-24T02:32:38;3.95;;;1.92;;
23868;SDS011;12115;47.128;15.422;2022-09-24T02:35:08;1.98;;;1.65;;
23868;SDS011;12115;47.128;15.422;2022-09-24T02:37:37;2.95;;;1.88;;
23868;SDS011;12115;47.128;15.422;2022-09-24T02:40:07;2.25;;;1.73;;
23868;SDS011;12115;47.128;15.422;2022-09-24T02:42:36;2.65;;;2.30;;
23868;SDS011;12115;47.128;15.422;2022-09-24T02:45:04;3.50;;;2.10;;
23868;SDS011;12115;47.128;15.422;2022-09-24T02:47:31;2.70;;;1.70;;
23868;SDS011;12115;47.128;15.422;2022-09-24T02:49:59;1.95;;;1.60;;
23868;SDS011;12115;47.128;15.422;2022-09-24T02:52:26;2.42;;;1.70;;
23868;SDS011;12115;47.128;15.422;2022-09-24T02:54:53;3.17;;;1.55;;
23868;SDS011;12115;47.128;15.422;2022-09-24T02:57:20;3.85;;;1.88;;
23868;SDS011;12115;47.128;15.422;2022-09-24T02:59:47;2.35;;;1.60;;
23868;SDS011;12115;47.128;15.422;2022-09-24T03:02:16;2.70;;;1.80;;
23868;SDS011;12115;47.128;15.422;2022-09-24T03:04:43;3.22;;;2.00;;
23868;SDS011;12115;47.128;15.422;2022-09-24T03:07:10;2.17;;;1.40;;
23868;SDS011;12115;47.128;15.422;2022-09-24T03:09:39;3.22;;;2.15;;
23868;SDS011;12115;47.128;15.422;2022-09-24T03:12:07;3.42;;;1.77;;
23868;SDS011;12115;47.128;15.422;2022-09-24T03:14:34;3.13;;;1.88;;
23868;SDS011;12115;47.128;15.422;2022-09-24T03:17:01;2.80;;;1.70;;
23868;SDS011;12115;47.128;15.422;2022-09-24T03:19:30;2.85;;;1.50;;
23868;SDS011;12115;47.128;15.422;2022-09-24T03:21:57;3.65;;;1.67;;
23868;SDS011;12115;47.128;15.422;2022-09-24T03:24:24;3.63;;;1.90;;
23868;SDS011;12115;47.128;15.422;2022-09-24T03:26:52;2.97;;;2.08;;
23868;SDS011;12115;47.128;15.422;2022-09-24T03:29:19;3.38;;;1.52;;
23868;SDS011;12115;47.128;15.422;2022-09-24T03:32:06;2.35;;;1.83;;
23868;SDS011;12115;47.128;15.422;2022-09-24T03:34:34;2.72;;;1.92;;
23868;SDS011;12115;47.128;15.422;2022-09-24T03:37:01;4.60;;;2.03;;
23868;SDS011;12115;47.128;15.422;2022-09-24T03:39:28;1.90;;;1.70;;
23868;SDS011;12115;47.128;15.422;2022-09-24T03:41:55;3.78;;;2.30;;
23868;SDS011;12115;47.128;15.422;2022-09-24T03:44:22;6.22;;;2.60;;
23868;SDS011;12115;47.128;15.422;2022-09-24T03:46:50;3.75;;;2.45;;
23868;SDS011;12115;47.128;15.422;2022-09-24T03:49:17;3.97;;;3.13;;
23868;SDS011;12115;47.128;15.422;2022-09-24T03:51:44;4.18;;;2.42;;
23868;SDS011;12115;47.128;15.422;2022-09-24T03:54:11;2.55;;;2.25;;
23868;SDS011;12115;47.128;15.422;2022-09-24T03:56:38;3.50;;;2.10;;
23868;SDS011;12115;47.128;15.422;2022-09-24T03:59:06;3.90;;;1.73;;
23868;SDS011;12115;47.128;15.422;2022-09-24T04:01:34;2.95;;;2.17;;
23868;SDS011;12115;47.128;15.422;2022-09-24T04:04:03;2.30;;;1.90;;
23868;SDS011;12115;47.128;15.422;2022-09-24T04:06:30;3.95;;;2.92;;
23868;SDS011;12115;47.128;15.422;2022-09-24T04:08:57;3.78;;;2.13;;
23868;SDS011;12115;47.128;15.422;2022-09-24T04:11:25;2.83;;;2.30;;
23868;SDS011;12115;47.128;15.422;2022-09-24T04:13:53;4.30;;;2.22;;
23868;SDS011;12115;47.128;15.422;2022-09-24T04:16:20;2.20;;;1.95;;
23868;SDS011;12115;47.128;15.422;2022-09-24T04:18:47;4.15;;;2.78;;
23868;SDS011;12115;47.128;15.422;2022-09-24T04:21:15;3.50;;;2.55;;
23868;SDS011;12115;47.128;15.422;2022-09-24T04:23:42;2.30;;;1.65;;
23868;SDS011;12115;47.128;15.422;2022-09-24T04:26:09;3.00;;;2.25;;
23868;SDS011;12115;47.128;15.422;2022-09-24T04:28:36;2.38;;;2.00;;
23868;SDS011;12115;47.128;15.422;2022-09-24T04:31:03;2.47;;;1.90;;
23868;SDS011;12115;47.128;15.422;2022-09-24T04:33:31;3.65;;;2.30;;
23868;SDS011;12115;47.128;15.422;2022-09-24T04:35:59;3.00;;;2.00;;
23868;SDS011;12115;47.128;15.422;2022-09-24T04:38:26;3.10;;;2.40;;
23868;SDS011;12115;47.128;15.422;2022-09-24T04:40:53;3.58;;;2.10;;
23868;SDS011;12115;47.128;15.422;2022-09-24T04:43:30;3.13;;;2.00;;
23868;SDS011;12115;47.128;15.422;2022-09-24T04:45:58;3.33;;;2.45;;
23868;SDS011;12115;47.128;15.422;2022-09-24T04:48:26;4.30;;;2.30;;
23868;SDS011;12115;47.128;15.422;2022-09-24T04:50:54;2.55;;;1.98;;
23868;SDS011;12115;47.128;15.422;2022-09-24T04:53:21;4.07;;;2.50;;
23868;SDS011;12115;47.128;15.422;2022-09-24T04:55:49;3.05;;;2.10;;
23868;SDS011;12115;47.128;15.422;2022-09-24T04:58:16;2.50;;;1.90;;
23868;SDS011;12115;47.128;15.422;2022-09-24T05:00:43;2.35;;;1.60;;
23868;SDS011;12115;47.128;15.422;2022-09-24T05:03:10;3.05;;;1.73;;
23868;SDS011;12115;47.128;15.422;2022-09-24T05:05:37;3.22;;;1.70;;
23868;SDS011;12115;47.128;15.422;2022-09-24T05:08:04;2.00;;;1.80;;
23868;SDS011;12115;47.128;15.422;2022-09-24T05:10:32;4.75;;;2.40;;
23868;SDS011;12115;47.128;15.422;2022-09-24T05:12:59;4.43;;;2.58;;
23868;SDS011;12115;47.128;15.422;2022-09-24T05:15:27;4.65;;;2.30;;
23868;SDS011;12115;47.128;15.422;2022-09-24T05:17:55;7.28;;;1.98;;
23868;SDS011;12115;47.128;15.422;2022-09-24T05:20:22;3.08;;;2.13;;
23868;SDS011;12115;47.128;15.422;2022-09-24T05:22:50;6.20;;;2.30;;
23868;SDS011;12115;47.128;15.422;2022-09-24T05:25:18;2.10;;;1.90;;
23868;SDS011;12115;47.128;15.422;2022-09-24T05:27:50;2.40;;;2.05;;
23868;SDS011;12115;47.128;15.422;2022-09-24T05:30:19;2.67;;;1.83;;
23868;SDS011;12115;47.128;15.422;2022-09-24T05:32:48;7.85;;;3.05;;
23868;SDS011;12115;47.128;15.422;2022-09-24T05:35:19;3.75;;;2.90;;
23868;SDS011;12115;47.128;15.422;2022-09-24T05:37:48;5.35;;;3.13;;
23868;SDS011;12115;47.128;15.422;2022-09-24T05:40:19;6.63;;;3.50;;
23868;SDS011;12115;47.128;15.422;2022-09-24T05:43:06;3.65;;;1.83;;
23868;SDS011;12115;47.128;15.422;2022-09-24T05:45:33;5.70;;;3.08;;
23868;SDS011;12115;47.128;15.422;2022-09-24T05:48:00;2.80;;;2.38;;
23868;SDS011;12115;47.128;15.422;2022-09-24T05:50:28;3.58;;;2.70;;
23868;SDS011;12115;47.128;15.422;2022-09-24T05:52:55;4.63;;;2.70;;
23868;SDS011;12115;47.128;15.422;2022-09-24T05:55:22;4.18;;;2.38;;
23868;SDS011;12115;47.128;15.422;2022-09-24T05:58:00;4.13;;;2.83;;
23868;SDS011;12115;47.128;15.422;2022-09-24T06:00:28;2.90;;;2.50;;
23868;SDS011;12115;47.128;15.422;2022-09-24T06:03:00;5.00;;;2.50;;
23868;SDS011;12115;47.128;15.422;2022-09-24T06:05:33;5.82;;;2.40;;
23868;SDS011;12115;47.128;15.422;2022-09-24T06:08:01;3.05;;;2.67;;
23868;SDS011;12115;47.128;15.422;2022-09-24T06:10:30;3.38;;;3.08;;
23868;SDS011;12115;47.128;15.422;2022-09-24T06:12:57;2.95;;;2.10;;
23868;SDS011;12115;47.128;15.422;2022-09-24T06:15:24;3.05;;;2.13;;
23868;SDS011;12115;47.128;15.422;2022-09-24T06:17:53;3.67;;;2.45;;
23868;SDS011;12115;47.128;15.422;2022-09-24T06:20:20;3.42;;;2.35;;
23868;SDS011;12115;47.128;15.422;2022-09-24T06:22:48;4.30;;;2.97;;
23868;SDS011;12115;47.128;15.422;2022-09-24T06:25:16;6.78;;;3.30;;
23868;SDS011;12115;47.128;15.422;2022-09-24T06:27:43;13.15;;;4.53;;
23868;SDS011;12115;47.128;15.422;2022-09-24T06:30:10;6.72;;;3.30;;
23868;SDS011;12115;47.128;15.422;2022-09-24T06:32:37;6.25;;;3.55;;
23868;SDS011;12115;47.128;15.422;2022-09-24T06:35:05;2.40;;;1.80;;
23868;SDS011;12115;47.128;15.422;2022-09-24T06:37:32;3.47;;;2.50;;
23868;SDS011;12115;47.128;15.422;2022-09-24T06:39:59;4.18;;;2.92;;
23868;SDS011;12115;47.128;15.422;2022-09-24T06:42:26;6.68;;;2.53;;
23868;SDS011;12115;47.128;15.422;2022-09-24T06:44:54;7.35;;;2.75;;
23868;SDS011;12115;47.128;15.422;2022-09-24T06:47:21;3.83;;;3.20;;
23868;SDS011;12115;47.128;15.422;2022-09-24T06:49:49;7.18;;;3.38;;
23868;SDS011;12115;47.128;15.422;2022-09-24T06:52:16;5.00;;;3.50;;
23868;SDS011;12115;47.128;15.422;2022-09-24T06:54:43;4.07;;;3.60;;
23868;SDS011;12115;47.128;15.422;2022-09-24T06:57:10;5.80;;;3.75;;
23868;SDS011;12115;47.128;15.422;2022-09-24T06:59:37;5.40;;;3.65;;
23868;SDS011;12115;47.128;15.422;2022-09-24T07:02:04;4.72;;;3.50;;
23868;SDS011;12115;47.128;15.422;2022-09-24T07:04:31;4.43;;;3.22;;
23868;SDS011;12115;47.128;15.422;2022-09-24T07:06:58;5.45;;;3.15;;
23868;SDS011;12115;47.128;15.422;2022-09-24T07:09:44;4.10;;;2.95;;
23868;SDS011;12115;47.128;15.422;2022-09-24T07:12:11;5.35;;;2.88;;
23868;SDS011;12115;47.128;15.422;2022-09-24T07:14:38;5.38;;;3.30;;
23868;SDS011;12115;47.128;15.422;2022-09-24T07:17:05;5.40;;;3.42;;
23868;SDS011;12115;47.128;15.422;2022-09-24T07:19:32;5.10;;;2.92;;
23868;SDS011;12115;47.128;15.422;2022-09-24T07:21:59;3.90;;;2.85;;
23868;SDS011;12115;47.128;15.422;2022-09-24T07:24:26;3.35;;;2.40;;
23868;SDS011;12115;47.128;15.422;2022-09-24T07:26:53;5.60;;;2.70;;
23868;SDS011;12115;47.128;15.422;2022-09-24T07:29:20;3.80;;;2.67;;
23868;SDS011;12115;47.128;15.422;2022-09-24T07:31:48;4.85;;;2.90;;
23868;SDS011;12115;47.128;15.422;2022-09-24T07:34:15;4.43;;;2.50;;
23868;SDS011;12115;47.128;15.422;2022-09-24T07:36:42;3.88;;;3.13;;
23868;SDS011;12115;47.128;15.422;2022-09-24T07:39:09;5.05;;;2.70;;
23868;SDS011;12115;47.128;15.422;2022-09-24T07:41:36;5.75;;;3.30;;
23868;SDS011;12115;47.128;15.422;2022-09-24T07:44:08;4.68;;;3.35;;
23868;SDS011;12115;47.128;15.422;2022-09-24T07:46:35;6.55;;;2.92;;
23868;SDS011;12115;47.128;15.422;2022-09-24T07:49:02;5.05;;;2.60;;
23868;SDS011;12115;47.128;15.422;2022-09-24T07:51:30;5.10;;;2.70;;
23868;SDS011;12115;47.128;15.422;2022-09-24T07:53:57;4.55;;;3.10;;
23868;SDS011;12115;47.128;15.422;2022-09-24T07:56:24;6.65;;;3.35;;
23868;SDS011;12115;47.128;15.422;2022-09-24T07:58:51;3.47;;;2.53;;
23868;SDS011;12115;47.128;15.422;2022-09-24T08:01:19;4.93;;;2.95;;
23868;SDS011;12115;47.128;15.422;2022-09-24T08:03:46;8.70;;;3.38;;
23868;SDS011;12115;47.128;15.422;2022-09-24T08:06:13;8.07;;;3.60;;
23868;SDS011;12115;47.128;15.422;2022-09-24T08:08:40;6.95;;;3.25;;
23868;SDS011;12115;47.128;15.422;2022-09-24T08:11:10;4.07;;;2.72;;
23868;SDS011;12115;47.128;15.422;2022-09-24T08:13:42;7.40;;;3.25;;
23868;SDS011;12115;47.128;15.422;2022-09-24T08:16:10;4.93;;;2.70;;
23868;SDS011;12115;47.128;15.422;2022-09-24T08:18:38;3.95;;;2.88;;
23868;SDS011;12115;47.128;15.422;2022-09-24T08:21:06;4.07;;;2.72;;
23868;SDS011;12115;47.128;15.422;2022-09-24T08:23:36;4.63;;;2.60;;
23868;SDS011;12115;47.128;15.422;2022-09-24T08:26:08;3.78;;;2.80;;
23868;SDS011;12115;47.128;15.422;2022-09-24T08:28:36;4.90;;;2.30;;
23868;SDS011;12115;47.128;15.422;2022-09-24T08:31:06;4.65;;;2.15;;
23868;SDS011;12115;47.128;15.422;2022-09-24T08:33:34;3.40;;;2.40;;
23868;SDS011;12115;47.128;15.422;2022-09-24T08:36:03;2.25;;;2.03;;
23868;SDS011;12115;47.128;15.422;2022-09-24T08:38:32;2.25;;;2.10;;
23868;SDS011;12115;47.128;15.422;2022-09-24T08:46:40;2.85;;;2.30;;
23868;SDS011;12115;47.128;15.422;2022-09-24T08:49:30;3.45;;;2.42;;
23868;SDS011;12115;47.128;15.422;2022-09-24T08:54:54;3.38;;;2.50;;
23868;SDS011;12115;47.128;15.422;2022-09-24T08:57:27;3.88;;;2.65;;
23868;SDS011;12115;47.128;15.422;2022-09-24T08:59:56;7.13;;;4.93;;
23868;SDS011;12115;47.128;15.422;2022-09-24T09:06:22;5.65;;;3.42;;
23868;SDS011;12115;47.128;15.422;2022-09-24T09:11:14;4.30;;;2.50;;
23868;SDS011;12115;47.128;15.422;2022-09-24T09:13:51;10.13;;;4.22;;
23868;SDS011;12115;47.128;15.422;2022-09-24T09:18:56;5.22;;;2.63;;
23868;SDS011;12115;47.128;15.422;2022-09-24T09:24:16;4.95;;;2.40;;
23868;SDS011;12115;47.128;15.422;2022-09-24T09:26:48;6.60;;;2.78;;
23868;SDS011;12115;47.128;15.422;2022-09-24T09:29:21;5.40;;;2.38;;
23868;SDS011;12115;47.128;15.422;2022-09-24T09:35:05;6.40;;;2.40;;
23868;SDS011;12115;47.128;15.422;2022-09-24T09:37:48;2.55;;;1.80;;
23868;SDS011;12115;47.128;15.422;2022-09-24T09:40:40;3.15;;;2.08;;
23868;SDS011;12115;47.128;15.422;2022-09-24T09:43:09;7.78;;;2.30;;
23868;SDS011;12115;47.128;15.422;2022-09-24T09:48:41;5.25;;;2.40;;
23868;SDS011;12115;47.128;15.422;2022-09-24T09:51:30;3.20;;;2.67;;
23868;SDS011;12115;47.128;15.422;2022-09-24T09:54:03;3.90;;;2.80;;
23868;SDS011;12115;47.128;15.422;2022-09-24T09:56:41;4.35;;;2.97;;
23868;SDS011;12115;47.128;15.422;2022-09-24T10:01:41;7.45;;;2.78;;
23868;SDS011;12115;47.128;15.422;2022-09-24T10:09:37;4.72;;;3.03;;
23868;SDS011;12115;47.128;15.422;2022-09-24T10:12:06;6.65;;;2.65;;
23868;SDS011;12115;47.128;15.422;2022-09-24T10:14:34;6.65;;;2.80;;
23868;SDS011;12115;47.128;15.422;2022-09-24T10:17:01;6.65;;;2.70;;
23868;SDS011;12115;47.128;15.422;2022-09-24T10:19:34;4.50;;;2.80;;
23868;SDS011;12115;47.128;15.422;2022-09-24T10:22:09;5.05;;;3.20;;
23868;SDS011;12115;47.128;15.422;2022-09-24T10:24:56;6.03;;;2.63;;
23868;SDS011;12115;47.128;15.422;2022-09-24T10:27:30;4.70;;;3.03;;
23868;SDS011;12115;47.128;15.422;2022-09-24T10:30:03;5.00;;;2.60;;
23868;SDS011;12115;47.128;15.422;2022-09-24T10:32:57;3.03;;;2.17;;
23868;SDS011;12115;47.128;15.422;2022-09-24T10:38:03;2.72;;;2.08;;
23868;SDS011;12115;47.128;15.422;2022-09-24T10:40:50;5.00;;;2.13;;
23868;SDS011;12115;47.128;15.422;2022-09-24T10:43:18;3.50;;;2.28;;
23868;SDS011;12115;47.128;15.422;2022-09-24T10:48:30;5.88;;;2.55;;
23868;SDS011;12115;47.128;15.422;2022-09-24T10:54:11;5.15;;;2.42;;
23868;SDS011;12115;47.128;15.422;2022-09-24T10:57:05;8.75;;;2.83;;
23868;SDS011;12115;47.128;15.422;2022-09-24T11:05:29;3.45;;;2.25;;
23868;SDS011;12115;47.128;15.422;2022-09-24T11:11:28;4.15;;;2.97;;
23868;SDS011;12115;47.128;15.422;2022-09-24T11:16:54;5.07;;;2.20;;
23868;SDS011;12115;47.128;15.422;2022-09-24T11:19:44;3.70;;;2.30;;
23868;SDS011;12115;47.128;15.422;2022-09-24T11:22:20;5.93;;;2.50;;
23868;SDS011;12115;47.128;15.422;2022-09-24T11:30:21;3.33;;;2.63;;
23868;SDS011;12115;47.128;15.422;2022-09-24T11:38:59;4.65;;;2.40;;
23868;SDS011;12115;47.128;15.422;2022-09-24T11:43:43;2.92;;;1.92;;
23868;SDS011;12115;47.128;15.422;2022-09-24T11:46:26;7.05;;;2.25;;
23868;SDS011;12115;47.128;15.422;2022-09-24T11:49:39;5.80;;;2.50;;
23868;SDS011;12115;47.128;15.422;2022-09-24T11:51:56;5.28;;;2.50;;
23868;SDS011;12115;47.128;15.422;2022-09-24T11:54:39;4.38;;;2.35;;
23868;SDS011;12115;47.128;15.422;2022-09-24T11:57:36;3.45;;;2.10;;
23868;SDS011;12115;47.128;15.422;2022-09-24T12:00:18;3.83;;;2.00;;
23868;SDS011;12115;47.128;15.422;2022-09-24T12:02:47;3.33;;;2.10;;
23868;SDS011;12115;47.128;15.422;2022-09-24T12:05:38;5.63;;;2.38;;
23868;SDS011;12115;47.128;15.422;2022-09-24T12:08:13;5.65;;;2.58;;
23868;SDS011;12115;47.128;15.422;2022-09-24T12:11:14;3.38;;;1.58;;
23868;SDS011;12115;47.128;15.422;2022-09-24T12:13:54;5.05;;;1.95;;
23868;SDS011;12115;47.128;15.422;2022-09-24T12:16:31;4.05;;;1.83;;
23868;SDS011;12115;47.128;15.422;2022-09-24T12:19:21;4.20;;;1.80;;
23868;SDS011;12115;47.128;15.422;2022-09-24T12:21:49;3.38;;;1.70;;
23868;SDS011;12115;47.128;15.422;2022-09-24T12:24:29;4.30;;;2.08;;
23868;SDS011;12115;47.128;15.422;2022-09-24T12:27:05;3.60;;;1.90;;
23868;SDS011;12115;47.128;15.422;2022-09-24T12:29:50;3.35;;;2.00;;
23868;SDS011;12115;47.128;15.422;2022-09-24T12:32:52;2.67;;;1.70;;
23868;SDS011;12115;47.128;15.422;2022-09-24T12:38:07;3.45;;;1.70;;
23868;SDS011;12115;47.128;15.422;2022-09-24T12:43:46;3.30;;;1.58;;
23868;SDS011;12115;47.128;15.422;2022-09-24T12:46:37;3.08;;;1.83;;
23868;SDS011;12115;47.128;15.422;2022-09-24T12:49:25;2.45;;;1.70;;
23868;SDS011;12115;47.128;15.422;2022-09-24T12:52:03;2.58;;;1.58;;
23868;SDS011;12115;47.128;15.422;2022-09-24T12:54:43;1.50;;;1.38;;
23868;SDS011;12115;47.128;15.422;2022-09-24T12:59:53;4.13;;;1.90;;
23868;SDS011;12115;47.128;15.422;2022-09-24T13:05:25;2.15;;;1.48;;
23868;SDS011;12115;47.128;15.422;2022-09-24T13:10:34;4.63;;;2.00;;
23868;SDS011;12115;47.128;15.422;2022-09-24T13:13:02;2.60;;;1.70;;
23868;SDS011;12115;47.128;15.422;2022-09-24T13:15:56;4.20;;;1.50;;
23868;SDS011;12115;47.128;15.422;2022-09-24T13:18:28;4.32;;;1.70;;
23868;SDS011;12115;47.128;15.422;2022-09-24T13:21:01;2.78;;;1.27;;
23868;SDS011;12115;47.128;15.422;2022-09-24T13:23:42;4.47;;;1.52;;
23868;SDS011;12115;47.128;15.422;2022-09-24T13:26:12;3.25;;;1.90;;
23868;SDS011;12115;47.128;15.422;2022-09-24T13:29:01;2.75;;;1.55;;
23868;SDS011;12115;47.128;15.422;2022-09-24T13:31:40;3.28;;;1.58;;
23868;SDS011;12115;47.128;15.422;2022-09-24T13:36:39;5.22;;;1.58;;
23868;SDS011;12115;47.128;15.422;2022-09-24T13:44:48;3.15;;;1.33;;
23868;SDS011;12115;47.128;15.422;2022-09-24T13:50:17;22.08;;;16.45;;
23868;SDS011;12115;47.128;15.422;2022-09-24T13:55:48;3.90;;;2.10;;
23868;SDS011;12115;47.128;15.422;2022-09-24T13:58:26;30.17;;;16.98;;
23868;SDS011;12115;47.128;15.422;2022-09-24T14:00:53;23.13;;;13.88;;
23868;SDS011;12115;47.128;15.422;2022-09-24T14:03:26;2.65;;;2.17;;
23868;SDS011;12115;47.128;15.422;2022-09-24T14:05:54;2.92;;;1.50;;
23868;SDS011;12115;47.128;15.422;2022-09-24T14:08:24;3.63;;;1.48;;
23868;SDS011;12115;47.128;15.422;2022-09-24T14:11:03;2.85;;;1.40;;
23868;SDS011;12115;47.128;15.422;2022-09-24T14:13:33;4.85;;;3.53;;
23868;SDS011;12115;47.128;15.422;2022-09-24T14:16:07;2.35;;;2.00;;
23868;SDS011;12115;47.128;15.422;2022-09-24T14:18:36;4.80;;;2.30;;
23868;SDS011;12115;47.128;15.422;2022-09-24T14:21:04;5.53;;;1.90;;
23868;SDS011;12115;47.128;15.422;2022-09-24T14:23:42;10.68;;;7.78;;
23868;SDS011;12115;47.128;15.422;2022-09-24T14:26:31;3.65;;;2.20;;
23868;SDS011;12115;47.128;15.422;2022-09-24T14:29:12;6.03;;;2.08;;
23868;SDS011;12115;47.128;15.422;2022-09-24T14:31:46;1.77;;;1.20;;
23868;SDS011;12115;47.128;15.422;2022-09-24T14:37:06;4.68;;;1.40;;
23868;SDS011;12115;47.128;15.422;2022-09-24T14:39:39;1.40;;;1.00;;
23868;SDS011;12115;47.128;15.422;2022-09-24T14:42:10;2.80;;;1.20;;
23868;SDS011;12115;47.128;15.422;2022-09-24T14:44:44;4.05;;;1.27;;
23868;SDS011;12115;47.128;15.422;2022-09-24T14:47:45;3.58;;;1.33;;
23868;SDS011;12115;47.128;15.422;2022-09-24T14:50:22;1.73;;;1.40;;
23868;SDS011;12115;47.128;15.422;2022-09-24T14:52:54;2.40;;;1.08;;
23868;SDS011;12115;47.128;15.422;2022-09-24T14:55:34;3.60;;;1.40;;
23868;SDS011;12115;47.128;15.422;2022-09-24T14:58:03;1.73;;;1.30;;
23868;SDS011;12115;47.128;15.422;2022-09-24T15:00:33;3.30;;;1.90;;
23868;SDS011;12115;47.128;15.422;2022-09-24T15:03:12;1.67;;;1.40;;
23868;SDS011;12115;47.128;15.422;2022-09-24T15:05:41;3.72;;;2.63;;
23868;SDS011;12115;47.128;15.422;2022-09-24T15:08:17;3.20;;;1.80;;
23868;SDS011;12115;47.128;15.422;2022-09-24T15:10:56;3.40;;;1.85;;
23868;SDS011;12115;47.128;15.422;2022-09-24T15:13:33;1.60;;;1.50;;
23868;SDS011;12115;47.128;15.422;2022-09-24T15:16:03;4.00;;;2.20;;
23868;SDS011;12115;47.128;15.422;2022-09-24T15:18:32;3.38;;;1.58;;
23868;SDS011;12115;47.128;15.422;2022-09-24T15:21:03;2.90;;;2.10;;
23868;SDS011;12115;47.128;15.422;2022-09-24T15:23:34;2.90;;;2.60;;
23868;SDS011;12115;47.128;15.422;2022-09-24T15:26:01;4.65;;;2.83;;
23868;SDS011;12115;47.128;15.422;2022-09-24T15:28:29;4.60;;;2.75;;
23868;SDS011;12115;47.128;15.422;2022-09-24T15:30:58;2.80;;;2.50;;
23868;SDS011;12115;47.128;15.422;2022-09-24T15:33:25;3.00;;;2.65;;
23868;SDS011;12115;47.128;15.422;2022-09-24T15:35:53;3.03;;;2.58;;
23868;SDS011;12115;47.128;15.422;2022-09-24T15:38:20;6.72;;;2.28;;
23868;SDS011;12115;47.128;15.422;2022-09-24T15:40:48;3.75;;;2.15;;
23868;SDS011;12115;47.128;15.422;2022-09-24T15:43:22;4.15;;;2.10;;
23868;SDS011;12115;47.128;15.422;2022-09-24T15:48:18;3.88;;;2.50;;
23868;SDS011;12115;47.128;15.422;2022-09-24T15:50:45;3.75;;;2.60;;
23868;SDS011;12115;47.128;15.422;2022-09-24T15:53:20;4.63;;;3.08;;
23868;SDS011;12115;47.128;15.422;2022-09-24T15:55:51;5.20;;;3.10;;
23868;SDS011;12115;47.128;15.422;2022-09-24T15:58:20;7.67;;;4.40;;
23868;SDS011;12115;47.128;15.422;2022-09-24T16:00:48;7.28;;;3.78;;
23868;SDS011;12115;47.128;15.422;2022-09-24T16:03:23;6.55;;;4.03;;
23868;SDS011;12115;47.128;15.422;2022-09-24T16:05:52;6.10;;;3.60;;
23868;SDS011;12115;47.128;15.422;2022-09-24T16:08:20;12.45;;;4.43;;
23868;SDS011;12115;47.128;15.422;2022-09-24T16:10:48;8.75;;;3.63;;
23868;SDS011;12115;47.128;15.422;2022-09-24T16:13:16;5.72;;;3.20;;
23868;SDS011;12115;47.128;15.422;2022-09-24T16:15:44;6.78;;;4.15;;
23868;SDS011;12115;47.128;15.422;2022-09-24T16:18:12;6.75;;;4.18;;
23868;SDS011;12115;47.128;15.422;2022-09-24T16:20:40;6.60;;;5.10;;
23868;SDS011;12115;47.128;15.422;2022-09-24T16:23:15;5.57;;;4.15;;
23868;SDS011;12115;47.128;15.422;2022-09-24T16:25:53;6.43;;;3.72;;
23868;SDS011;12115;47.128;15.422;2022-09-24T16:28:24;5.13;;;3.33;;
23868;SDS011;12115;47.128;15.422;2022-09-24T16:30:54;5.30;;;3.10;;
23868;SDS011;12115;47.128;15.422;2022-09-24T16:33:22;3.05;;;2.45;;
23868;SDS011;12115;47.128;15.422;2022-09-24T16:35:49;3.72;;;2.30;;
23868;SDS011;12115;47.128;15.422;2022-09-24T16:38:17;8.65;;;5.03;;
23868;SDS011;12115;47.128;15.422;2022-09-24T16:40:48;46.65;;;15.00;;
23868;SDS011;12115;47.128;15.422;2022-09-24T16:43:24;25.25;;;9.52;;
23868;SDS011;12115;47.128;15.422;2022-09-24T16:45:51;31.33;;;11.55;;
23868;SDS011;12115;47.128;15.422;2022-09-24T16:48:18;22.30;;;9.02;;
23868;SDS011;12115;47.128;15.422;2022-09-24T16:50:45;38.53;;;13.93;;
23868;SDS011;12115;47.128;15.422;2022-09-24T16:53:14;25.45;;;11.55;;
23868;SDS011;12115;47.128;15.422;2022-09-24T16:55:41;15.02;;;6.75;;
23868;SDS011;12115;47.128;15.422;2022-09-24T16:58:08;8.27;;;4.38;;
23868;SDS011;12115;47.128;15.422;2022-09-24T17:00:39;5.00;;;2.92;;
23868;SDS011;12115;47.128;15.422;2022-09-24T17:03:08;4.25;;;2.70;;